createdAt,value
2023-11-10T00:00:36.626Z,6.50
2023-11-10T00:02:45.399Z,7.47
2023-11-10T00:04:53.387Z,15.60
2023-11-10T00:06:59.414Z,14.07
2023-11-10T00:09:07.332Z,15.35
2023-11-10T00:11:16.544Z,6.70
2023-11-10T00:13:25.370Z,7.82
2023-11-10T00:15:32.855Z,6.90
2023-11-10T00:17:41.930Z,5.90
2023-11-10T00:19:49.213Z,10.00
2023-11-10T00:21:56.650Z,8.88
2023-11-10T00:24:05.520Z,11.63
2023-11-10T00:26:12.593Z,6.15
2023-11-10T00:28:22.256Z,5.57
2023-11-10T00:30:31.390Z,5.15
2023-11-10T00:32:39.475Z,4.45
2023-11-10T00:34:46.659Z,4.25
2023-11-10T00:36:53.783Z,4.10
2023-11-10T00:39:00.981Z,4.47
2023-11-10T00:41:08.402Z,5.97
2023-11-10T00:43:15.124Z,5.20
2023-11-10T00:45:22.231Z,5.35
2023-11-10T00:47:30.890Z,10.43
2023-11-10T00:49:38.203Z,4.55
2023-11-10T00:51:45.319Z,4.15
2023-11-10T00:53:52.823Z,3.75
2023-11-10T00:56:00.075Z,3.75
2023-11-10T00:58:08.060Z,3.67
2023-11-10T01:00:16.124Z,2.88
2023-11-10T01:02:23.245Z,4.32
2023-11-10T01:04:32.239Z,3.63
2023-11-10T01:06:39.385Z,4.57
2023-11-10T01:08:45.667Z,3.70
2023-11-10T01:10:52.559Z,4.55
2023-11-10T01:13:00.790Z,3.88
2023-11-10T01:15:07.377Z,4.07
2023-11-10T01:17:14.747Z,4.57
2023-11-10T01:19:21.982Z,3.47
2023-11-10T01:21:31.161Z,4.35
2023-11-10T01:23:38.420Z,4.32
2023-11-10T01:25:46.096Z,3.92
2023-11-10T01:27:55.167Z,3.67
2023-11-10T01:30:02.337Z,3.80
2023-11-10T01:32:10.136Z,3.10
2023-11-10T01:34:20.883Z,3.10
2023-11-10T01:36:28.924Z,3.88
2023-11-10T01:38:37.723Z,3.72
2023-11-10T01:40:46.101Z,3.88
2023-11-10T01:42:53.007Z,5.22
2023-11-10T01:44:58.638Z,3.90
2023-11-10T01:47:07.658Z,13.55
2023-11-10T01:49:15.855Z,4.38
2023-11-10T01:51:25.735Z,3.85
2023-11-10T01:53:33.528Z,3.85
2023-11-10T01:55:45.661Z,3.70
2023-11-10T01:57:52.955Z,2.65
2023-11-10T02:00:03.337Z,3.33
2023-11-10T02:02:17.719Z,3.33
2023-11-10T02:04:23.808Z,5.40
2023-11-10T02:06:31.259Z,4.18
2023-11-10T02:08:38.652Z,5.70
2023-11-10T02:10:47.472Z,4.78
2023-11-10T02:12:56.544Z,4.57
2023-11-10T02:15:05.360Z,3.83
2023-11-10T02:17:12.808Z,4.07
2023-11-10T02:19:20.907Z,3.28
2023-11-10T02:21:28.770Z,4.10
2023-11-10T02:23:37.205Z,3.90
2023-11-10T02:25:49.915Z,3.42
2023-11-10T02:27:56.898Z,3.50
2023-11-10T02:30:02.645Z,4.15
2023-11-10T02:32:10.138Z,3.53
2023-11-10T02:34:17.684Z,4.50
2023-11-10T02:36:23.598Z,3.97
2023-11-10T02:38:31.107Z,3.70
2023-11-10T02:40:38.035Z,4.05
2023-11-10T02:42:47.001Z,3.90
2023-11-10T02:44:54.142Z,3.65
2023-11-10T02:47:01.831Z,4.28
2023-11-10T02:49:08.660Z,4.40
2023-11-10T02:51:16.757Z,4.13
2023-11-10T02:53:23.907Z,3.38
2023-11-10T02:55:31.123Z,4.22
2023-11-10T02:57:38.069Z,4.53
2023-11-10T02:59:47.176Z,4.32
2023-11-10T03:01:54.560Z,3.47
2023-11-10T03:04:01.978Z,3.40
2023-11-10T03:06:10.434Z,2.70
2023-11-10T03:08:18.509Z,2.35
2023-11-10T03:10:25.744Z,2.95
2023-11-10T03:12:34.478Z,2.78
2023-11-10T03:14:44.816Z,3.00
2023-11-10T03:16:53.997Z,3.13
2023-11-10T03:19:00.949Z,3.45
2023-11-10T03:21:08.178Z,3.78
2023-11-10T03:23:15.801Z,3.47
2023-11-10T03:25:22.831Z,3.40
2023-11-10T03:27:29.848Z,3.40
2023-11-10T03:29:37.260Z,2.60
2023-11-10T03:31:44.207Z,3.10
2023-11-10T03:33:53.162Z,3.22
2023-11-10T03:36:00.141Z,3.55
2023-11-10T03:38:07.456Z,3.28
2023-11-10T03:40:17.196Z,2.40
2023-11-10T03:42:24.363Z,2.33
2023-11-10T03:44:31.825Z,2.17
2023-11-10T03:46:39.353Z,2.47
2023-11-10T03:48:46.809Z,3.50
2023-11-10T03:50:56.775Z,2.42
2023-11-10T03:53:04.234Z,2.70
2023-11-10T03:55:12.128Z,3.15
2023-11-10T03:57:19.272Z,2.60
2023-11-10T03:59:26.794Z,2.83
2023-11-10T04:01:34.218Z,6.13
2023-11-10T04:03:42.246Z,3.28
2023-11-10T04:05:51.879Z,2.65
2023-11-10T04:08:01.316Z,2.30
2023-11-10T04:10:09.259Z,2.70
2023-11-10T04:12:15.559Z,2.38
2023-11-10T04:14:22.547Z,3.08
2023-11-10T04:16:30.065Z,3.00
2023-11-10T04:18:39.573Z,3.60
2023-11-10T04:20:47.324Z,5.28
2023-11-10T04:22:54.704Z,4.68
2023-11-10T04:25:03.935Z,4.20
2023-11-10T04:27:11.223Z,3.70
2023-11-10T04:29:17.124Z,4.03
2023-11-10T04:31:24.408Z,3.58
2023-11-10T04:33:31.900Z,3.38
2023-11-10T04:35:39.497Z,3.15
2023-11-10T04:37:46.824Z,3.00
2023-11-10T04:39:54.461Z,3.80
2023-11-10T04:42:03.647Z,3.30
2023-11-10T04:44:11.440Z,2.53
2023-11-10T04:46:18.749Z,2.75
2023-11-10T04:48:26.107Z,2.50
2023-11-10T04:50:33.596Z,3.47
2023-11-10T04:52:42.920Z,3.03
2023-11-10T04:54:49.257Z,2.95
2023-11-10T04:56:56.316Z,3.13
2023-11-10T04:59:05.500Z,2.35
2023-11-10T05:01:12.650Z,2.83
2023-11-10T05:03:20.656Z,3.20
2023-11-10T05:05:27.914Z,2.85
2023-11-10T05:07:33.664Z,3.85
2023-11-10T05:09:42.057Z,3.90
2023-11-10T05:11:49.824Z,4.20
2023-11-10T05:13:58.278Z,4.15
2023-11-10T05:16:07.576Z,4.28
2023-11-10T05:18:58.051Z,3.80
2023-11-10T05:20:42.810Z,4.15
2023-11-10T05:22:50.201Z,3.65
2023-11-10T05:24:57.169Z,2.83
2023-11-10T05:27:04.920Z,3.80
2023-11-10T05:29:12.103Z,3.38
2023-11-10T05:31:22.069Z,3.00
2023-11-10T05:33:27.892Z,3.05
2023-11-10T05:35:35.647Z,3.72
2023-11-10T05:37:42.568Z,3.20
2023-11-10T05:39:50.083Z,3.13
2023-11-10T05:41:55.895Z,2.63
2023-11-10T05:44:03.752Z,3.00
2023-11-10T05:46:11.102Z,3.20
2023-11-10T05:48:20.291Z,3.65
2023-11-10T05:50:27.359Z,3.70
2023-11-10T05:52:34.936Z,3.65
2023-11-10T05:54:42.196Z,4.72
2023-11-10T05:56:48.335Z,6.18
2023-11-10T05:58:55.621Z,3.17
2023-11-10T06:01:03.356Z,4.10
2023-11-10T06:03:10.304Z,3.85
2023-11-10T06:05:20.159Z,3.22
2023-11-10T06:07:26.394Z,4.35
2023-11-10T06:09:35.978Z,3.25
2023-11-10T06:11:53.033Z,2.85
2023-11-10T06:14:04.077Z,4.05
2023-11-10T06:16:15.155Z,3.75
2023-11-10T06:18:22.360Z,4.63
2023-11-10T06:20:31.951Z,4.10
2023-11-10T06:22:39.544Z,3.40
2023-11-10T06:24:46.684Z,3.05
2023-11-10T06:26:53.856Z,4.03
2023-11-10T06:29:01.499Z,2.92
2023-11-10T06:31:08.937Z,3.80
2023-11-10T06:33:16.645Z,4.25
2023-11-10T06:35:23.968Z,3.88
2023-11-10T06:37:33.332Z,3.00
2023-11-10T06:39:40.992Z,3.00
2023-11-10T06:41:48.229Z,3.85
2023-11-10T06:43:55.815Z,3.67
2023-11-10T06:46:03.458Z,3.63
2023-11-10T06:48:11.169Z,3.47
2023-11-10T06:50:18.321Z,3.13
2023-11-10T06:52:24.397Z,3.60
2023-11-10T06:54:33.751Z,2.88
2023-11-10T06:56:41.261Z,3.20
2023-11-10T06:58:48.645Z,3.55
2023-11-10T07:00:56.119Z,3.97
2023-11-10T07:03:04.147Z,3.75
2023-11-10T07:05:12.136Z,3.95
2023-11-10T07:07:19.497Z,3.50
2023-11-10T07:09:27.876Z,3.40
2023-11-10T07:11:36.912Z,3.72
2023-11-10T07:13:44.396Z,3.78
2023-11-10T07:15:52.093Z,3.72
2023-11-10T07:17:59.480Z,3.10
2023-11-10T07:20:08.064Z,2.80
2023-11-10T07:22:15.228Z,4.68
2023-11-10T07:24:22.432Z,3.47
2023-11-10T07:26:30.385Z,4.10
2023-11-10T07:28:39.125Z,5.45
2023-11-10T07:30:46.839Z,4.25
2023-11-10T07:32:53.416Z,4.07
2023-11-10T07:35:02.487Z,4.40
2023-11-10T07:37:10.309Z,4.60
2023-11-10T07:39:18.780Z,3.20
2023-11-10T07:41:25.972Z,3.58
2023-11-10T07:43:33.338Z,3.22
2023-11-10T07:45:42.354Z,3.13
2023-11-10T07:47:50.466Z,3.25
2023-11-10T07:49:57.901Z,3.35
2023-11-10T07:52:05.748Z,3.35
2023-11-10T07:54:14.925Z,5.40
2023-11-10T07:56:22.391Z,4.70
2023-11-10T07:58:29.610Z,5.38
2023-11-10T08:00:37.080Z,4.93
2023-11-10T08:02:45.943Z,4.53
2023-11-10T08:04:53.238Z,4.35
2023-11-10T08:07:00.926Z,4.55
2023-11-10T08:09:08.612Z,2.65
2023-11-10T08:11:16.889Z,2.88
2023-11-10T08:13:24.900Z,3.00
2023-11-10T08:15:31.920Z,2.28
2023-11-10T08:17:39.216Z,2.40
2023-11-10T08:19:48.101Z,3.03
2023-11-10T08:21:56.764Z,3.92
2023-11-10T08:24:05.505Z,2.60
2023-11-10T08:26:12.748Z,2.45
2023-11-10T08:28:19.837Z,2.67
2023-11-10T08:30:28.698Z,2.67
2023-11-10T08:32:35.786Z,2.13
2023-11-10T08:34:43.155Z,2.83
2023-11-10T08:36:54.536Z,2.75
2023-11-10T08:39:01.768Z,3.10
2023-11-10T08:41:08.875Z,3.80
2023-11-10T08:43:16.989Z,3.08
2023-11-10T08:45:26.391Z,3.50
2023-11-10T08:47:33.783Z,3.20
2023-11-10T08:49:39.480Z,3.05
2023-11-10T08:51:47.070Z,2.90
2023-11-10T08:53:55.936Z,3.15
2023-11-10T08:56:03.113Z,3.63
2023-11-10T08:58:10.239Z,4.03
2023-11-10T09:00:19.742Z,3.25
2023-11-10T09:02:27.036Z,2.65
2023-11-10T09:04:34.167Z,2.75
2023-11-10T09:06:41.576Z,2.95
2023-11-10T09:08:48.742Z,2.90
2023-11-10T09:10:58.651Z,2.90
2023-11-10T09:13:06.916Z,4.97
2023-11-10T09:15:17.065Z,4.88
2023-11-10T09:17:24.449Z,4.68
2023-11-10T09:19:31.752Z,4.53
2023-11-10T09:21:38.681Z,4.60
2023-11-10T09:23:45.908Z,2.67
2023-11-10T09:25:52.922Z,3.40
2023-11-10T09:28:05.349Z,2.78
2023-11-10T09:30:15.076Z,2.70
2023-11-10T09:32:22.196Z,3.55
2023-11-10T09:34:29.906Z,3.92
2023-11-10T09:36:37.429Z,3.90
2023-11-10T09:38:44.521Z,4.18
2023-11-10T09:40:51.946Z,3.88
2023-11-10T09:43:01.046Z,4.03
2023-11-10T09:45:07.896Z,3.85
2023-11-10T09:47:16.494Z,3.38
2023-11-10T09:49:25.314Z,3.28
2023-11-10T09:51:32.957Z,3.70
2023-11-10T09:53:41.561Z,3.70
2023-11-10T09:55:49.182Z,3.80
2023-11-10T09:57:58.073Z,3.97
2023-11-10T10:00:07.134Z,4.38
2023-11-10T10:02:14.937Z,3.83
2023-11-10T10:04:22.229Z,3.63
2023-11-10T10:06:29.966Z,3.85
2023-11-10T10:08:37.549Z,3.28
2023-11-10T10:10:47.493Z,4.68
2023-11-10T10:12:55.648Z,2.40
2023-11-10T10:15:02.838Z,2.15
2023-11-10T10:17:13.182Z,2.22
2023-11-10T10:19:26.635Z,2.13
2023-11-10T10:21:43.317Z,2.08
2023-11-10T10:23:51.729Z,1.80
2023-11-10T10:25:59.615Z,1.92
2023-11-10T10:28:07.073Z,2.10
2023-11-10T10:30:15.219Z,2.22
2023-11-10T10:32:25.366Z,1.83
2023-11-10T10:34:32.567Z,2.22
2023-11-10T10:36:40.611Z,2.15
2023-11-10T10:38:49.910Z,2.40
2023-11-10T10:41:00.294Z,3.10
2023-11-10T10:43:07.627Z,2.97
2023-11-10T10:45:15.381Z,3.03
2023-11-10T10:47:26.238Z,2.45
2023-11-10T10:49:33.328Z,3.22
2023-11-10T10:51:41.296Z,3.65
2023-11-10T10:53:47.224Z,2.88
2023-11-10T10:55:56.823Z,5.00
2023-11-10T10:58:05.670Z,11.60
2023-11-10T11:00:18.689Z,10.88
2023-11-10T11:02:29.063Z,10.18
2023-11-10T11:04:47.219Z,10.75
2023-11-10T11:07:15.517Z,12.18
2023-11-10T11:09:44.421Z,10.05
2023-11-10T11:12:12.534Z,8.48
2023-11-10T11:14:40.756Z,8.57
2023-11-10T11:17:05.404Z,6.57
2023-11-10T11:19:29.875Z,3.67
2023-11-10T11:21:36.918Z,4.88
2023-11-10T11:23:44.861Z,4.03
2023-11-10T11:26:01.791Z,4.13
2023-11-10T11:28:10.034Z,5.00
2023-11-10T11:30:17.958Z,4.53
2023-11-10T11:32:32.597Z,4.00
2023-11-10T11:34:42.785Z,4.47
2023-11-10T11:36:49.381Z,4.10
2023-11-10T11:38:56.896Z,5.25
2023-11-10T11:41:08.334Z,5.20
2023-11-10T11:43:17.654Z,5.40
2023-11-10T11:45:26.760Z,5.78
2023-11-10T11:47:35.922Z,6.47
2023-11-10T11:49:44.978Z,6.93
2023-11-10T11:51:52.763Z,6.95
2023-11-10T11:53:59.600Z,23.40
2023-11-10T11:56:08.617Z,8.38
2023-11-10T11:58:18.129Z,7.90
2023-11-10T12:00:26.334Z,7.72
2023-11-10T12:02:33.257Z,8.15
2023-11-10T12:04:40.478Z,6.88
2023-11-10T12:06:50.761Z,7.55
2023-11-10T12:08:58.270Z,7.65
2023-11-10T12:11:05.353Z,7.68
2023-11-10T12:13:15.122Z,9.80
2023-11-10T12:17:30.964Z,13.93
2023-11-10T12:19:37.859Z,12.77
2023-11-10T12:21:45.478Z,11.95
2023-11-10T12:24:02.926Z,11.00
2023-11-10T12:26:10.280Z,10.73
2023-11-10T12:28:17.746Z,11.45
2023-11-10T12:30:25.047Z,11.88
2023-11-10T12:32:32.412Z,10.63
2023-11-10T12:34:40.450Z,11.73
2023-11-10T12:36:49.794Z,10.60
2023-11-10T12:38:56.737Z,9.85
2023-11-10T12:41:06.944Z,11.32
2023-11-10T12:43:15.012Z,10.50
2023-11-10T12:45:22.634Z,12.27
2023-11-10T12:47:35.777Z,7.10
2023-11-10T12:49:43.301Z,5.78
2023-11-10T12:51:51.988Z,6.55
2023-11-10T12:54:06.948Z,6.15
2023-11-10T12:56:16.107Z,7.05
2023-11-10T12:58:25.859Z,5.95
2023-11-10T13:00:33.935Z,6.75
2023-11-10T13:02:41.582Z,6.90
2023-11-10T13:04:50.118Z,11.27
2023-11-10T13:06:58.379Z,11.38
2023-11-10T13:09:04.472Z,12.32
2023-11-10T13:11:11.604Z,9.45
2023-11-10T13:13:20.422Z,9.55
2023-11-10T13:15:28.481Z,9.88
2023-11-10T13:17:35.778Z,9.57
2023-11-10T13:19:44.221Z,9.65
2023-11-10T13:21:51.391Z,9.38
2023-11-10T13:23:59.610Z,10.38
2023-11-10T13:26:05.693Z,5.53
2023-11-10T13:28:13.241Z,6.63
2023-11-10T13:30:22.483Z,6.03
2023-11-10T13:32:31.058Z,6.57
2023-11-10T13:34:38.179Z,6.88
2023-11-10T13:36:45.264Z,6.18
2023-11-10T13:38:52.591Z,6.65
2023-11-10T13:41:00.184Z,5.95
2023-11-10T13:43:07.464Z,7.05
2023-11-10T13:45:14.093Z,6.35
2023-11-10T13:47:23.160Z,11.75
2023-11-10T13:49:30.142Z,7.13
2023-11-10T13:51:38.198Z,6.65
2023-11-10T13:53:46.189Z,7.28
2023-11-10T13:55:56.238Z,7.90
2023-11-10T13:58:03.451Z,7.80
2023-11-10T14:00:14.393Z,7.97
2023-11-10T14:02:23.419Z,6.50
2023-11-10T14:04:30.654Z,5.88
2023-11-10T14:06:39.845Z,5.18
2023-11-10T14:08:47.168Z,5.45
2023-11-10T14:10:57.312Z,15.07
2023-11-10T14:13:04.382Z,12.75
2023-11-10T14:15:13.160Z,10.98
2023-11-10T14:17:22.173Z,20.17
2023-11-10T14:19:29.678Z,21.30
2023-11-10T14:21:37.275Z,22.05
2023-11-10T14:23:44.874Z,7.25
2023-11-10T14:25:52.296Z,10.07
2023-11-10T14:27:59.794Z,9.55
2023-11-10T14:30:09.438Z,9.05
2023-11-10T14:32:17.520Z,8.50
2023-11-10T14:34:27.934Z,5.32
2023-11-10T14:36:35.478Z,5.50
2023-11-10T14:38:46.888Z,7.10
2023-11-10T14:40:57.716Z,15.02
2023-11-10T14:43:08.120Z,7.70
2023-11-10T14:45:18.738Z,6.97
2023-11-10T14:47:27.277Z,7.03
2023-11-10T14:49:45.290Z,6.40
2023-11-10T14:51:58.335Z,6.70
2023-11-10T14:54:06.767Z,6.75
2023-11-10T14:56:15.232Z,6.07
2023-11-10T14:58:22.712Z,5.78
2023-11-10T15:00:29.952Z,6.80
2023-11-10T15:02:37.167Z,6.82
2023-11-10T15:04:47.510Z,6.85
2023-11-10T15:06:54.852Z,6.35
2023-11-10T15:09:02.681Z,6.82
2023-11-10T15:11:10.680Z,5.93
2023-11-10T15:13:18.472Z,7.07
2023-11-10T15:15:25.450Z,6.93
2023-11-10T15:17:32.703Z,6.45
2023-11-10T15:19:41.325Z,5.93
2023-11-10T15:21:50.508Z,6.88
2023-11-10T15:23:59.140Z,6.88
2023-11-10T15:26:07.663Z,7.50
2023-11-10T15:28:15.552Z,7.40
2023-11-10T15:30:22.090Z,7.07
2023-11-10T15:32:29.394Z,7.03
2023-11-10T15:34:37.352Z,7.32
2023-11-10T15:36:52.589Z,7.72
2023-11-10T15:39:10.020Z,8.35
2023-11-10T15:41:22.347Z,10.65
2023-11-10T15:43:30.046Z,10.32
2023-11-10T15:45:37.517Z,9.30
2023-11-10T15:47:44.819Z,10.20
2023-11-10T15:49:51.689Z,7.63
2023-11-10T15:51:58.969Z,6.53
2023-11-10T15:54:09.530Z,7.60
2023-11-10T15:56:17.173Z,8.77
2023-11-10T15:58:24.185Z,8.05
2023-11-10T16:00:30.679Z,7.47
2023-11-10T16:02:38.109Z,10.45
2023-11-10T16:04:45.963Z,5.72
2023-11-10T16:06:55.753Z,5.68
2023-11-10T16:09:03.796Z,6.72
2023-11-10T16:11:12.619Z,7.45
2023-11-10T16:13:19.922Z,8.02
2023-11-10T16:15:26.979Z,6.30
2023-11-10T16:17:34.391Z,7.15
2023-11-10T16:19:41.494Z,8.18
2023-11-10T16:21:48.956Z,11.45
2023-11-10T16:23:56.625Z,11.88
2023-11-10T16:26:08.159Z,12.20
2023-11-10T16:28:17.879Z,12.45
2023-11-10T16:30:26.935Z,13.13
2023-11-10T16:32:35.187Z,15.32
2023-11-10T16:34:42.930Z,13.70
2023-11-10T16:36:49.984Z,10.63
2023-11-10T16:38:57.148Z,7.72
2023-11-10T16:41:05.968Z,7.07
2023-11-10T16:43:13.369Z,7.30
2023-11-10T16:45:22.081Z,8.52
2023-11-10T16:47:30.581Z,9.75
2023-11-10T16:49:38.328Z,10.23
2023-11-10T16:51:46.499Z,10.35
2023-11-10T16:53:53.661Z,11.15
2023-11-10T16:56:01.375Z,11.65
2023-11-10T16:58:08.591Z,9.88
2023-11-10T17:00:20.597Z,9.95
2023-11-10T17:02:38.991Z,10.45
2023-11-10T17:04:52.032Z,8.73
2023-11-10T17:06:59.652Z,7.72
2023-11-10T17:09:07.118Z,7.43
2023-11-10T17:11:14.253Z,8.10
2023-11-10T17:13:21.538Z,9.93
2023-11-10T17:15:28.461Z,8.55
2023-11-10T17:17:37.239Z,9.13
2023-11-10T17:19:45.033Z,9.15
2023-11-10T17:21:52.421Z,11.00
2023-11-10T17:23:59.288Z,7.88
2023-11-10T17:26:06.938Z,8.55
2023-11-10T17:28:14.304Z,7.93
2023-11-10T17:30:22.012Z,7.93
2023-11-10T17:32:28.953Z,7.43
2023-11-10T17:34:37.713Z,6.60
2023-11-10T17:36:44.873Z,6.72
2023-11-10T17:38:52.073Z,6.53
2023-11-10T17:41:01.206Z,6.95
2023-11-10T17:43:08.791Z,6.38
2023-11-10T17:45:19.479Z,6.50
2023-11-10T17:47:26.487Z,6.53
2023-11-10T17:49:33.712Z,7.28
2023-11-10T17:51:42.755Z,6.55
2023-11-10T17:53:50.022Z,7.30
2023-11-10T17:55:57.329Z,7.15
2023-11-10T17:58:05.118Z,7.78
2023-11-10T18:00:11.925Z,6.78
2023-11-10T18:02:21.937Z,6.72
2023-11-10T18:04:29.234Z,8.20
2023-11-10T18:06:36.674Z,23.65
2023-11-10T18:08:45.464Z,8.60
2023-11-10T18:10:54.477Z,7.15
2023-11-10T18:13:01.396Z,7.78
2023-11-10T18:15:09.462Z,6.38
2023-11-10T18:17:16.390Z,7.05
2023-11-10T18:19:24.135Z,6.05
2023-11-10T18:21:31.161Z,6.85
2023-11-10T18:23:38.244Z,6.97
2023-11-10T18:25:47.473Z,6.10
2023-11-10T18:27:54.978Z,6.50
2023-11-10T18:30:01.898Z,6.90
2023-11-10T18:32:11.320Z,8.10
2023-11-10T18:34:18.609Z,9.35
2023-11-10T18:36:26.154Z,9.70
2023-11-10T18:38:33.225Z,9.63
2023-11-10T18:40:40.999Z,8.73
2023-11-10T18:42:51.206Z,10.00
2023-11-10T18:44:58.415Z,8.98
2023-11-10T18:47:05.401Z,10.55
2023-11-10T18:49:13.779Z,9.65
2023-11-10T18:51:21.027Z,9.38
2023-11-10T18:53:28.157Z,8.93
2023-11-10T18:55:35.111Z,8.38
2023-11-10T18:57:42.254Z,10.10
2023-11-10T18:59:52.466Z,8.52
2023-11-10T19:01:59.802Z,8.65
2023-11-10T19:04:08.151Z,8.70
2023-11-10T19:06:16.419Z,9.73
2023-11-10T19:08:23.549Z,10.48
2023-11-10T19:10:31.035Z,9.20
2023-11-10T19:12:38.013Z,9.27
2023-11-10T19:14:47.395Z,9.40
2023-11-10T19:16:56.142Z,7.22
2023-11-10T19:19:03.754Z,8.85
2023-11-10T19:21:11.398Z,7.65
2023-11-10T19:23:18.943Z,7.45
2023-11-10T19:25:25.802Z,7.72
2023-11-10T19:27:33.098Z,7.72
2023-11-10T19:29:40.275Z,6.70
2023-11-10T19:31:48.330Z,8.82
2023-11-10T19:33:57.485Z,7.30
2023-11-10T19:36:05.565Z,7.50
2023-11-10T19:38:11.314Z,8.65
2023-11-10T19:40:18.979Z,8.93
2023-11-10T19:42:25.941Z,8.93
2023-11-10T19:44:33.020Z,7.88
2023-11-10T19:46:43.723Z,8.35
2023-11-10T19:48:53.167Z,8.57
2023-11-10T19:51:02.084Z,8.93
2023-11-10T19:53:09.508Z,8.18
2023-11-10T19:55:19.261Z,7.95
2023-11-10T19:57:25.325Z,8.70
2023-11-10T19:59:32.909Z,7.88
2023-11-10T20:01:39.841Z,9.02
2023-11-10T20:03:47.099Z,7.10
2023-11-10T20:05:54.244Z,7.88
2023-11-10T20:08:03.479Z,8.00
2023-11-10T20:10:11.585Z,8.75
2023-11-10T20:12:19.252Z,8.93
2023-11-10T20:14:26.659Z,8.45
2023-11-10T20:16:37.061Z,8.07
2023-11-10T20:18:44.158Z,6.78
2023-11-10T20:20:51.635Z,7.70
2023-11-10T20:22:58.667Z,8.73
2023-11-10T20:25:09.211Z,8.60
2023-11-10T20:27:16.208Z,9.50
2023-11-10T20:29:23.852Z,10.18
2023-11-10T20:31:31.157Z,9.05
2023-11-10T20:33:38.774Z,9.40
2023-11-10T20:35:45.696Z,8.35
2023-11-10T20:37:52.877Z,7.53
2023-11-10T20:40:00.567Z,7.47
2023-11-10T20:42:10.234Z,7.32
2023-11-10T20:44:17.391Z,7.43
2023-11-10T20:46:25.117Z,7.32
2023-11-10T20:48:32.814Z,8.52
2023-11-10T20:50:41.446Z,6.63
2023-11-10T20:52:48.527Z,6.70
2023-11-10T20:54:55.849Z,6.20
2023-11-10T20:57:03.014Z,7.88
2023-11-10T20:59:12.170Z,9.32
2023-11-10T21:01:19.578Z,8.52
2023-11-10T21:03:27.543Z,6.22
2023-11-10T21:05:34.640Z,6.38
2023-11-10T21:07:42.177Z,7.00
2023-11-10T21:09:49.104Z,8.13
2023-11-10T21:11:56.333Z,7.15
2023-11-10T21:14:03.264Z,6.78
2023-11-10T21:16:13.086Z,7.45
2023-11-10T21:18:20.983Z,6.78
2023-11-10T21:20:26.963Z,6.63
2023-11-10T21:22:33.929Z,7.80
2023-11-10T21:24:40.614Z,7.93
2023-11-10T21:26:51.569Z,8.13
2023-11-10T21:28:59.016Z,7.50
2023-11-10T21:31:05.936Z,8.02
2023-11-10T21:33:15.139Z,7.18
2023-11-10T21:35:27.680Z,7.18
2023-11-10T21:37:35.110Z,7.47
2023-11-10T21:39:42.142Z,7.63
2023-11-10T21:41:49.637Z,8.43
2023-11-10T21:43:56.961Z,9.55
2023-11-10T21:46:04.667Z,8.82
2023-11-10T21:48:10.885Z,7.22
2023-11-10T21:50:19.993Z,7.70
2023-11-10T21:52:27.904Z,7.90
2023-11-10T21:54:35.503Z,7.72
2023-11-10T21:56:42.717Z,6.60
2023-11-10T21:58:48.929Z,5.72
2023-11-10T22:00:55.855Z,6.38
2023-11-10T22:03:03.202Z,6.18
2023-11-10T22:05:10.879Z,8.20
2023-11-10T22:07:20.107Z,8.10
2023-11-10T22:09:27.124Z,8.30
2023-11-10T22:11:34.335Z,8.13
2023-11-10T22:13:41.805Z,8.02
2023-11-10T22:15:48.990Z,7.50
2023-11-10T22:17:56.359Z,7.20
2023-11-10T22:20:02.372Z,7.70
2023-11-10T22:22:09.820Z,7.15
2023-11-10T22:24:18.711Z,5.93
2023-11-10T22:26:27.660Z,7.45
2023-11-10T22:28:35.051Z,8.57
2023-11-10T22:30:42.277Z,7.80
2023-11-10T22:32:49.706Z,8.07
2023-11-10T22:34:57.310Z,7.93
2023-11-10T22:37:05.568Z,5.80
2023-11-10T22:39:14.254Z,5.63
2023-11-10T22:41:23.309Z,5.60
2023-11-10T22:43:30.237Z,6.10
2023-11-10T22:45:38.847Z,6.85
2023-11-10T22:47:49.106Z,8.65
2023-11-10T22:49:55.724Z,7.43
2023-11-10T22:52:02.657Z,7.40
2023-11-10T22:54:10.021Z,7.07
2023-11-10T22:56:16.828Z,8.35
2023-11-10T22:58:25.686Z,9.15
2023-11-10T23:00:35.526Z,8.38
2023-11-10T23:02:42.219Z,7.97
2023-11-10T23:04:49.325Z,7.50
2023-11-10T23:06:56.481Z,7.50
2023-11-10T23:09:03.357Z,7.13
2023-11-10T23:11:10.549Z,6.75
2023-11-10T23:13:17.363Z,9.73
2023-11-10T23:15:26.395Z,7.63
2023-11-10T23:17:33.651Z,8.45
2023-11-10T23:19:40.819Z,7.50
2023-11-10T23:21:47.835Z,7.57
2023-11-10T23:23:54.878Z,8.13
2023-11-10T23:26:01.897Z,8.23
2023-11-10T23:28:09.295Z,7.47
2023-11-10T23:30:17.391Z,6.97
2023-11-10T23:32:27.254Z,6.70
2023-11-10T23:34:34.866Z,7.95
2023-11-10T23:36:45.649Z,8.38
2023-11-10T23:38:53.274Z,8.55
2023-11-10T23:40:59.074Z,8.32
2023-11-10T23:43:06.281Z,9.60
2023-11-10T23:45:15.777Z,19.90
2023-11-10T23:47:22.634Z,16.40
2023-11-10T23:49:31.729Z,8.95
2023-11-10T23:51:38.759Z,8.73
2023-11-10T23:53:45.795Z,8.00
2023-11-10T23:55:57.134Z,7.90
2023-11-10T23:58:07.731Z,7.65
